Barclose, United Kingdom
Current Conditions -  °F | °C
As of 7:20 PM on Thursday 23 Oct 2014 (Local Time) from EGNC Reporting Station
Broken Clouds Broken Clouds  
Wind Chill: 57°   Ceiling: 2100
Heat Index: 57°   Visibility: 6mi
Dew Point: 54°   Wind: 14mph
Humidity: 88%   Direction: 230°SW
Pressure: 29.77"   Gusts: NA
Location:  54.94°N, 3°W
Report Text: EGNC 231820Z 23012KT 9999 SCT014 BKN021 14/12 Q1008
Loading
Personal Weather Stations






























Interactive Weather Map
Tropical Storm Tracking
New forecast layout! Learn more

10-Day Weather Forecast

Advertisements
Track Severe Weather on mobile